createdAt,value
2018-12-01T00:01:28.426Z,12.73
2018-12-01T00:03:56.543Z,13.20
2018-12-01T00:06:24.668Z,13.57
2018-12-01T00:08:52.783Z,13.27
2018-12-01T00:11:20.902Z,12.23
2018-12-01T00:13:49.023Z,12.60
2018-12-01T00:16:17.157Z,13.77
2018-12-01T00:18:45.282Z,13.00
2018-12-01T00:21:13.393Z,12.30
2018-12-01T00:23:41.535Z,11.50
2018-12-01T00:26:09.629Z,14.63
2018-12-01T00:28:37.725Z,14.50
2018-12-01T00:31:05.981Z,12.70
2018-12-01T00:33:34.074Z,13.97
2018-12-01T00:36:02.203Z,15.40
2018-12-01T00:38:30.308Z,13.93
2018-12-01T00:40:58.428Z,12.83
2018-12-01T00:43:26.549Z,12.77
2018-12-01T00:45:54.659Z,13.37
2018-12-01T00:48:22.785Z,13.50
2018-12-01T00:50:50.914Z,13.10
2018-12-01T00:53:19.038Z,12.77
2018-12-01T00:55:47.176Z,12.93
2018-12-01T00:58:15.314Z,13.23
2018-12-01T01:00:43.462Z,13.30
2018-12-01T01:03:11.575Z,12.97
2018-12-01T01:05:39.714Z,13.67
2018-12-01T01:08:07.814Z,14.53
2018-12-01T01:10:35.944Z,15.30
2018-12-01T01:13:04.090Z,14.53
2018-12-01T01:15:32.210Z,15.20
2018-12-01T01:18:00.368Z,13.73
2018-12-01T01:20:28.508Z,15.33
2018-12-01T01:22:56.623Z,15.40
2018-12-01T01:25:24.759Z,17.43
2018-12-01T01:27:52.878Z,18.13
2018-12-01T01:30:21.985Z,18.53
2018-12-01T01:32:51.124Z,19.20
2018-12-01T01:35:19.289Z,16.63
2018-12-01T01:37:47.422Z,15.53
2018-12-01T01:40:17.234Z,17.03
2018-12-01T01:42:45.408Z,16.17
2018-12-01T01:45:16.555Z,16.87
2018-12-01T01:47:44.699Z,19.50
2018-12-01T01:50:17.670Z,19.57
2018-12-01T01:52:45.797Z,19.20
2018-12-01T01:55:13.901Z,17.63
2018-12-01T01:57:42.055Z,18.63
2018-12-01T02:00:14.679Z,16.20
2018-12-01T02:02:45.792Z,16.60
2018-12-01T02:05:14.612Z,15.57
2018-12-01T02:07:42.715Z,15.97
2018-12-01T02:10:11.875Z,15.57
2018-12-01T02:12:39.965Z,14.90
2018-12-01T02:15:09.058Z,13.30
2018-12-01T02:17:37.164Z,13.50
2018-12-01T02:20:09.592Z,13.43
2018-12-01T02:22:37.742Z,13.23
2018-12-01T02:25:06.542Z,14.43
2018-12-01T02:27:34.685Z,14.27
2018-12-01T02:30:02.789Z,12.40
2018-12-01T02:32:30.919Z,11.67
2018-12-01T02:34:59.073Z,13.33
2018-12-01T02:37:27.183Z,13.53
2018-12-01T02:39:55.276Z,14.23
2018-12-01T02:42:23.356Z,14.70
2018-12-01T02:45:03.774Z,15.90
2018-12-01T02:47:31.966Z,15.90
2018-12-01T02:50:00.073Z,15.60
2018-12-01T02:52:28.167Z,17.07
2018-12-01T02:54:56.317Z,14.73
2018-12-01T02:57:24.737Z,14.03
2018-12-01T02:59:52.837Z,14.80
2018-12-01T03:02:20.938Z,16.17
2018-12-01T03:04:49.021Z,15.20
2018-12-01T03:07:17.130Z,14.43
2018-12-01T03:09:45.233Z,13.87
2018-12-01T03:12:13.341Z,14.00
2018-12-01T03:14:41.437Z,12.83
2018-12-01T03:17:09.560Z,12.73
2018-12-01T03:19:37.654Z,13.80
2018-12-01T03:22:05.997Z,12.40
2018-12-01T03:24:34.080Z,12.30
2018-12-01T03:27:02.449Z,11.60
2018-12-01T03:29:30.530Z,11.70
2018-12-01T03:31:58.641Z,11.63
2018-12-01T03:34:26.749Z,12.80
2018-12-01T03:36:54.864Z,13.40
2018-12-01T03:39:22.953Z,12.97
2018-12-01T03:41:51.081Z,13.70
2018-12-01T03:44:19.191Z,11.80
2018-12-01T03:46:47.309Z,13.50
2018-12-01T03:49:15.480Z,11.67
2018-12-01T03:51:43.586Z,12.70
2018-12-01T03:54:11.686Z,12.60
2018-12-01T03:56:45.777Z,12.00
2018-12-01T03:59:13.889Z,14.37
2018-12-01T04:01:42.004Z,13.93
2018-12-01T04:04:10.218Z,15.07
2018-12-01T04:06:38.220Z,12.77
2018-12-01T04:09:13.370Z,13.93
2018-12-01T04:11:42.553Z,13.63
2018-12-01T04:14:10.670Z,13.53
2018-12-01T04:16:38.823Z,12.37
2018-12-01T04:19:06.916Z,14.00
2018-12-01T04:21:35.037Z,14.20
2018-12-01T04:24:03.137Z,14.20
2018-12-01T04:26:31.232Z,13.53
2018-12-01T04:28:59.324Z,14.13
2018-12-01T04:31:27.420Z,14.80
2018-12-01T04:33:55.524Z,14.73
2018-12-01T04:36:23.592Z,14.37
2018-12-01T04:38:51.698Z,14.83
2018-12-01T04:41:19.810Z,14.90
2018-12-01T04:43:47.952Z,13.90
2018-12-01T04:46:16.037Z,14.03
2018-12-01T04:48:44.130Z,13.03
2018-12-01T04:51:12.260Z,12.10
2018-12-01T04:53:40.341Z,11.70
2018-12-01T04:56:08.417Z,10.37
2018-12-01T04:58:36.509Z,12.40
2018-12-01T05:01:04.700Z,12.47
2018-12-01T05:03:32.797Z,14.30
2018-12-01T05:06:00.882Z,14.07
2018-12-01T05:08:29.002Z,15.00
2018-12-01T05:10:57.088Z,14.73
2018-12-01T05:13:25.194Z,13.70
2018-12-01T05:15:53.326Z,14.27
2018-12-01T05:18:21.422Z,14.03
2018-12-01T05:20:49.531Z,12.00
2018-12-01T05:23:17.625Z,11.00
2018-12-01T05:25:45.748Z,10.70
2018-12-01T05:28:13.845Z,11.40
2018-12-01T05:30:42.083Z,11.33
2018-12-01T05:33:10.188Z,12.83
2018-12-01T05:35:38.300Z,12.00
2018-12-01T05:38:06.381Z,11.40
2018-12-01T05:40:34.470Z,12.77
2018-12-01T05:43:02.569Z,11.30
2018-12-01T05:45:30.712Z,12.43
2018-12-01T05:47:58.788Z,11.93
2018-12-01T05:50:27.707Z,12.60
2018-12-01T05:52:56.707Z,12.47
2018-12-01T05:55:24.990Z,12.30
2018-12-01T05:57:53.114Z,12.63
2018-12-01T06:00:21.481Z,13.60
2018-12-01T06:02:49.577Z,12.50
2018-12-01T06:05:17.680Z,12.70
2018-12-01T06:07:45.824Z,12.17
2018-12-01T06:10:15.058Z,14.83
2018-12-01T06:12:43.154Z,13.80
2018-12-01T06:15:12.331Z,12.47
2018-12-01T06:17:40.469Z,16.20
2018-12-01T06:20:09.904Z,16.00
2018-12-01T06:22:38.020Z,17.03
2018-12-01T06:25:08.006Z,15.60
2018-12-01T06:27:36.165Z,13.50
2018-12-01T06:30:06.499Z,14.27
2018-12-01T06:32:34.701Z,13.43
2018-12-01T06:35:02.799Z,13.60
2018-12-01T06:37:30.895Z,11.97
2018-12-01T06:39:58.972Z,12.27
2018-12-01T06:42:27.129Z,12.33
2018-12-01T06:44:55.224Z,12.60
2018-12-01T06:47:23.395Z,12.80
2018-12-01T06:49:51.484Z,13.63
2018-12-01T06:52:19.577Z,12.80
2018-12-01T06:54:47.677Z,9.90
2018-12-01T06:57:15.774Z,8.40
2018-12-01T06:59:43.880Z,9.63
2018-12-01T07:02:11.965Z,8.93
2018-12-01T07:04:40.086Z,8.33
2018-12-01T07:07:08.183Z,8.90
2018-12-01T07:09:36.279Z,9.20
2018-12-01T07:12:04.409Z,11.20
2018-12-01T07:14:32.494Z,9.97
2018-12-01T07:17:00.632Z,10.10
2018-12-01T07:19:28.724Z,33.73
2018-12-01T07:21:56.838Z,14.47
2018-12-01T07:24:24.932Z,11.33
2018-12-01T07:26:53.049Z,13.80
2018-12-01T07:29:21.141Z,12.20
2018-12-01T07:31:49.241Z,10.40
2018-12-01T07:34:17.362Z,12.73
2018-12-01T07:36:45.639Z,10.87
2018-12-01T07:39:13.727Z,10.80
2018-12-01T07:41:41.834Z,10.90
2018-12-01T07:44:09.943Z,9.87
2018-12-01T07:46:38.125Z,10.20
2018-12-01T07:49:06.214Z,9.27
2018-12-01T07:51:34.337Z,8.03
2018-12-01T07:54:02.472Z,9.70
2018-12-01T07:56:30.569Z,9.80
2018-12-01T07:58:58.648Z,11.93
2018-12-01T08:01:26.740Z,11.77
2018-12-01T08:03:54.862Z,13.03
2018-12-01T08:06:22.984Z,12.17
2018-12-01T08:08:51.095Z,12.10
2018-12-01T08:11:19.272Z,12.77
2018-12-01T08:13:47.358Z,11.30
2018-12-01T08:16:15.464Z,10.97
2018-12-01T08:18:43.562Z,10.80
2018-12-01T08:21:11.675Z,10.30
2018-12-01T08:23:39.842Z,10.03
2018-12-01T08:26:07.986Z,10.47
2018-12-01T08:28:36.133Z,10.40
2018-12-01T08:31:04.247Z,9.03
2018-12-01T08:33:32.363Z,8.43
2018-12-01T08:36:00.455Z,7.93
2018-12-01T08:38:28.570Z,8.20
2018-12-01T08:40:56.725Z,7.80
2018-12-01T08:43:24.820Z,8.03
2018-12-01T08:45:52.928Z,9.77
2018-12-01T08:48:21.035Z,10.40
2018-12-01T08:50:49.201Z,9.60
2018-12-01T08:53:17.292Z,9.07
2018-12-01T08:55:45.434Z,10.40
2018-12-01T08:58:13.634Z,10.47
2018-12-01T09:00:42.522Z,10.50
2018-12-01T09:03:19.145Z,9.73
2018-12-01T09:05:47.246Z,10.90
2018-12-01T09:08:15.341Z,9.53
2018-12-01T09:10:43.461Z,8.80
2018-12-01T09:13:11.572Z,7.60
2018-12-01T09:15:39.660Z,10.03
2018-12-01T09:18:07.804Z,10.17
2018-12-01T09:20:35.901Z,9.27
2018-12-01T09:23:04.001Z,10.50
2018-12-01T09:25:32.117Z,9.87
2018-12-01T09:28:00.345Z,9.80
2018-12-01T09:30:30.651Z,9.97
2018-12-01T09:32:58.745Z,10.30
2018-12-01T09:35:26.846Z,8.77
2018-12-01T09:37:54.979Z,9.53
2018-12-01T09:40:30.071Z,8.13
2018-12-01T09:42:59.965Z,7.40
2018-12-01T09:45:28.082Z,8.60
2018-12-01T09:47:56.474Z,8.50
2018-12-01T09:50:24.547Z,7.40
2018-12-01T09:52:53.750Z,7.13
2018-12-01T09:55:23.134Z,7.20
2018-12-01T09:57:51.850Z,6.67
2018-12-01T10:00:29.010Z,5.77
2018-12-01T10:02:57.387Z,6.43
2018-12-01T10:05:25.488Z,7.10
2018-12-01T10:07:53.576Z,6.70
2018-12-01T10:10:22.739Z,6.70
2018-12-01T10:12:52.776Z,6.73
2018-12-01T10:15:27.828Z,8.00
2018-12-01T10:17:55.989Z,9.43
2018-12-01T10:20:32.382Z,9.30
2018-12-01T10:23:01.429Z,7.80
2018-12-01T10:25:29.640Z,8.13
2018-12-01T10:27:57.745Z,8.20
2018-12-01T10:30:25.827Z,9.07
2018-12-01T10:32:53.948Z,7.60
2018-12-01T10:35:23.837Z,8.53
2018-12-01T10:37:54.605Z,7.63
2018-12-01T10:40:22.731Z,7.27
2018-12-01T10:42:50.840Z,9.57
2018-12-01T10:45:19.829Z,8.27
2018-12-01T10:47:48.287Z,9.23
2018-12-01T10:50:24.461Z,7.80
2018-12-01T10:52:53.679Z,8.63
2018-12-01T10:55:28.203Z,10.10
2018-12-01T10:57:59.427Z,8.67
2018-12-01T11:00:32.959Z,8.93
2018-12-01T11:05:14.976Z,10.03
2018-12-01T11:07:43.061Z,8.70
2018-12-01T11:10:11.164Z,8.90
2018-12-01T11:12:39.267Z,7.57
2018-12-01T11:15:08.465Z,7.20
2018-12-01T11:17:36.567Z,7.67
2018-12-01T11:20:07.682Z,6.87
2018-12-01T11:22:35.770Z,6.60
2018-12-01T11:25:05.787Z,6.33
2018-12-01T11:27:33.889Z,6.60
2018-12-01T11:30:02.009Z,6.90
2018-12-01T11:32:30.097Z,5.53
2018-12-01T11:34:58.194Z,5.63
2018-12-01T11:37:26.297Z,6.57
2018-12-01T11:39:54.383Z,6.03
2018-12-01T11:42:22.545Z,7.63
2018-12-01T11:44:50.678Z,5.90
2018-12-01T11:47:18.776Z,5.97
2018-12-01T11:49:47.017Z,4.50
2018-12-01T11:52:15.114Z,5.10
2018-12-01T11:54:43.222Z,5.50
2018-12-01T11:57:11.335Z,4.33
2018-12-01T11:59:39.434Z,4.50
2018-12-01T12:02:07.533Z,5.03
2018-12-01T12:04:35.654Z,4.50
2018-12-01T12:07:03.757Z,4.90
2018-12-01T12:09:31.870Z,3.70
2018-12-01T12:11:59.953Z,3.90
2018-12-01T12:14:28.073Z,5.13
2018-12-01T12:16:56.174Z,3.47
2018-12-01T12:19:24.260Z,4.70
2018-12-01T12:21:52.340Z,4.47
2018-12-01T12:24:20.460Z,4.40
2018-12-01T12:26:48.703Z,3.87
2018-12-01T12:29:16.802Z,4.40
2018-12-01T12:31:45.056Z,4.37
2018-12-01T12:34:13.275Z,3.93
2018-12-01T12:36:41.356Z,4.10
2018-12-01T12:39:09.454Z,3.30
2018-12-01T12:41:37.560Z,4.10
2018-12-01T12:44:05.977Z,4.27
2018-12-01T12:46:34.125Z,3.10
2018-12-01T12:49:02.190Z,3.33
2018-12-01T12:51:30.296Z,3.43
2018-12-01T12:53:58.395Z,3.57
2018-12-01T12:56:26.492Z,3.20
2018-12-01T12:58:54.585Z,3.57
2018-12-01T13:01:22.749Z,3.50
2018-12-01T13:03:50.833Z,3.63
2018-12-01T13:06:18.917Z,4.30
2018-12-01T13:08:47.021Z,4.40
2018-12-01T13:11:15.117Z,3.60
2018-12-01T13:13:43.233Z,3.70
2018-12-01T13:19:03.414Z,3.20
2018-12-01T13:21:31.536Z,4.77
2018-12-01T13:23:59.642Z,4.27
2018-12-01T13:26:27.735Z,3.50
2018-12-01T13:28:55.820Z,3.83
2018-12-01T13:31:23.927Z,4.67
2018-12-01T13:33:52.075Z,3.20
2018-12-01T13:36:20.177Z,3.50
2018-12-01T13:38:48.253Z,4.47
2018-12-01T13:41:16.362Z,3.50
2018-12-01T13:43:44.492Z,3.57
2018-12-01T13:46:12.610Z,3.87
2018-12-01T13:48:40.714Z,3.57
2018-12-01T13:51:08.837Z,3.17
2018-12-01T13:53:36.938Z,3.90
2018-12-01T13:56:05.215Z,3.53
2018-12-01T13:58:33.318Z,4.20
2018-12-01T14:01:01.447Z,4.20
2018-12-01T14:03:29.563Z,3.90
2018-12-01T14:05:57.687Z,3.67
2018-12-01T14:08:25.799Z,2.97
2018-12-01T14:10:53.907Z,4.37
2018-12-01T14:13:22.023Z,3.70
2018-12-01T14:15:50.131Z,3.60
2018-12-01T14:18:18.271Z,4.47
2018-12-01T14:20:46.383Z,3.60
2018-12-01T14:23:14.490Z,4.30
2018-12-01T14:25:42.579Z,4.37
2018-12-01T14:28:11.817Z,4.63
2018-12-01T14:30:39.901Z,4.20
2018-12-01T14:33:08.882Z,4.83
2018-12-01T14:35:37.886Z,3.90
2018-12-01T14:38:12.104Z,4.37
2018-12-01T14:40:41.406Z,4.50
2018-12-01T14:43:09.507Z,3.93
2018-12-01T14:45:37.797Z,3.20
2018-12-01T14:48:06.250Z,3.93
2018-12-01T14:50:34.351Z,3.63
2018-12-01T14:53:02.446Z,3.80
2018-12-01T14:55:30.538Z,3.50
2018-12-01T14:57:58.649Z,3.50
2018-12-01T15:00:26.812Z,4.10
2018-12-01T15:02:56.466Z,3.13
2018-12-01T15:05:25.599Z,4.93
2018-12-01T15:07:53.693Z,4.40
2018-12-01T15:10:28.374Z,4.00
2018-12-01T15:12:56.487Z,3.83
2018-12-01T15:15:25.668Z,5.80
2018-12-01T15:17:53.770Z,4.60
2018-12-01T15:20:22.760Z,4.53
2018-12-01T15:22:52.038Z,4.30
2018-12-01T15:25:22.376Z,4.50
2018-12-01T15:27:50.469Z,4.07
2018-12-01T15:30:21.502Z,4.00
2018-12-01T15:32:52.318Z,3.63
2018-12-01T15:35:20.429Z,3.97
2018-12-01T15:37:48.522Z,3.90
2018-12-01T15:40:17.770Z,3.73
2018-12-01T15:42:45.956Z,4.00
2018-12-01T15:45:19.269Z,3.77
2018-12-01T15:47:47.379Z,4.10
2018-12-01T15:50:17.382Z,4.40
2018-12-01T15:52:48.562Z,3.80
2018-12-01T15:55:16.669Z,3.67
2018-12-01T15:57:44.918Z,3.93
2018-12-01T16:00:16.989Z,4.30
2018-12-01T16:02:45.089Z,4.57
2018-12-01T16:05:14.061Z,4.50
2018-12-01T16:07:42.176Z,4.03
2018-12-01T16:10:18.319Z,4.10
2018-12-01T16:12:47.893Z,3.10
2018-12-01T16:15:20.584Z,3.80
2018-12-01T16:17:48.835Z,2.97
2018-12-01T16:20:16.921Z,3.67
2018-12-01T16:22:45.018Z,4.00
2018-12-01T16:25:14.333Z,4.20
2018-12-01T16:27:43.306Z,3.47
2018-12-01T16:30:43.733Z,4.20
2018-12-01T16:33:16.773Z,3.60
2018-12-01T16:35:44.917Z,3.73
2018-12-01T16:38:14.623Z,3.47
2018-12-01T16:40:48.036Z,4.47
2018-12-01T16:43:16.596Z,4.00
2018-12-01T16:45:45.983Z,3.30
2018-12-01T16:48:14.078Z,3.23
2018-12-01T16:50:42.186Z,3.73
2018-12-01T16:53:12.055Z,3.53
2018-12-01T16:55:40.140Z,2.60
2018-12-01T16:58:08.239Z,4.00
2018-12-01T17:00:36.359Z,3.10
2018-12-01T17:03:04.460Z,3.50
2018-12-01T17:05:34.151Z,2.70
2018-12-01T17:08:02.258Z,3.67
2018-12-01T17:10:30.360Z,3.30
2018-12-01T17:12:58.610Z,3.80
2018-12-01T17:15:26.734Z,4.53
2018-12-01T17:17:54.938Z,4.17
2018-12-01T17:20:23.032Z,4.00
2018-12-01T17:22:54.665Z,4.10
2018-12-01T17:25:22.742Z,4.10
2018-12-01T17:27:51.802Z,5.30
2018-12-01T17:30:21.002Z,4.10
2018-12-01T17:32:49.289Z,3.80
2018-12-01T17:35:21.274Z,3.60
2018-12-01T17:37:50.663Z,3.70
2018-12-01T17:40:21.621Z,4.87
2018-12-01T17:42:52.018Z,4.77
2018-12-01T17:45:20.136Z,4.83
2018-12-01T17:47:48.226Z,4.30
2018-12-01T17:50:16.905Z,3.93
2018-12-01T17:52:47.809Z,4.60
2018-12-01T17:55:16.265Z,4.23
2018-12-01T17:57:45.175Z,4.10
2018-12-01T18:00:17.870Z,3.70
2018-12-01T18:02:46.049Z,3.60
2018-12-01T18:05:15.753Z,4.57
2018-12-01T18:07:43.866Z,4.33
2018-12-01T18:10:13.224Z,4.13
2018-12-01T18:12:42.009Z,3.40
2018-12-01T18:15:15.213Z,4.43
2018-12-01T18:17:43.312Z,3.97
2018-12-01T18:20:18.376Z,4.27
2018-12-01T18:22:52.065Z,4.00
2018-12-01T18:25:20.176Z,4.07
2018-12-01T18:27:49.153Z,4.33
2018-12-01T18:30:20.283Z,5.17
2018-12-01T18:32:49.023Z,4.13
2018-12-01T18:35:17.125Z,4.40
2018-12-01T18:37:45.221Z,4.63
2018-12-01T18:40:15.188Z,4.00
2018-12-01T18:42:43.278Z,4.10
2018-12-01T18:45:14.513Z,3.87
2018-12-01T18:47:42.617Z,3.87
2018-12-01T18:50:13.828Z,5.17
2018-12-01T18:52:43.033Z,4.47
2018-12-01T18:55:13.277Z,5.00
2018-12-01T18:57:41.444Z,4.60
2018-12-01T19:00:14.057Z,4.60
2018-12-01T19:02:42.528Z,4.50
2018-12-01T19:05:10.642Z,4.90
2018-12-01T19:07:38.753Z,5.30
2018-12-01T19:10:13.363Z,4.93
2018-12-01T19:12:41.526Z,5.77
2018-12-01T19:15:13.697Z,5.17
2018-12-01T19:17:41.974Z,5.33
2018-12-01T19:20:13.137Z,5.50
2018-12-01T19:22:41.350Z,5.40
2018-12-01T19:25:10.816Z,7.87
2018-12-01T19:27:38.908Z,5.67
2018-12-01T19:30:13.645Z,5.50
2018-12-01T19:32:42.791Z,5.10
2018-12-01T19:35:12.456Z,5.70
2018-12-01T19:37:40.563Z,4.83
2018-12-01T19:40:33.940Z,5.50
2018-12-01T19:43:02.640Z,4.70
2018-12-01T19:45:30.724Z,4.87
2018-12-01T19:47:58.862Z,5.30
2018-12-01T19:50:30.354Z,4.53
2018-12-01T19:52:58.456Z,5.13
2018-12-01T19:55:27.303Z,4.77
2018-12-01T19:57:55.809Z,4.27
2018-12-01T20:00:25.193Z,4.63
2018-12-01T20:02:53.641Z,4.83
2018-12-01T20:05:21.988Z,4.87
2018-12-01T20:07:51.187Z,4.93
2018-12-01T20:10:23.737Z,4.00
2018-12-01T20:12:54.161Z,4.73
2018-12-01T20:15:33.023Z,4.67
2018-12-01T20:18:03.006Z,4.93
2018-12-01T20:20:31.211Z,5.20
2018-12-01T20:22:59.411Z,4.93
2018-12-01T20:25:27.622Z,4.80
2018-12-01T20:27:55.800Z,5.00
2018-12-01T20:30:23.909Z,3.90
2018-12-01T20:32:52.108Z,4.27
2018-12-01T20:35:32.518Z,5.70
2018-12-01T20:38:04.372Z,5.37
2018-12-01T20:40:32.494Z,5.33
2018-12-01T20:43:00.599Z,5.23
2018-12-01T20:45:28.729Z,5.67
2018-12-01T20:47:57.023Z,5.10
2018-12-01T20:50:25.156Z,4.57
2018-12-01T20:52:53.400Z,4.50
2018-12-01T20:55:24.489Z,5.30
2018-12-01T20:57:54.117Z,5.90
2018-12-01T21:00:22.210Z,5.37
2018-12-01T21:02:50.320Z,6.27
2018-12-01T21:05:19.848Z,4.50
2018-12-01T21:07:47.994Z,5.20
2018-12-01T21:10:18.851Z,4.93
2018-12-01T21:12:46.974Z,3.90
2018-12-01T21:15:15.116Z,3.80
2018-12-01T21:17:43.800Z,3.47
2018-12-01T21:20:13.962Z,3.47
2018-12-01T21:22:43.528Z,3.40
2018-12-01T21:25:12.918Z,4.40
2018-12-01T21:27:41.140Z,3.47
2018-12-01T21:30:16.744Z,3.30
2018-12-01T21:32:45.638Z,4.53
2018-12-01T21:35:13.967Z,4.17
2018-12-01T21:37:42.161Z,3.80
2018-12-01T21:40:17.537Z,3.80
2018-12-01T21:42:45.684Z,3.67
2018-12-01T21:45:16.418Z,3.00
2018-12-01T21:47:43.997Z,3.30
2018-12-01T21:50:14.247Z,3.40
2018-12-01T21:52:43.552Z,3.40
2018-12-01T21:55:12.136Z,3.70
2018-12-01T21:57:41.437Z,3.23
2018-12-01T22:00:12.685Z,3.73
2018-12-01T22:02:41.050Z,3.07
2018-12-01T22:05:12.302Z,2.97
2018-12-01T22:07:40.533Z,3.60
2018-12-01T22:10:11.813Z,3.10
2018-12-01T22:12:39.972Z,4.17
2018-12-01T22:15:14.891Z,4.80
2018-12-01T22:17:43.131Z,3.50
2018-12-01T22:20:12.904Z,3.40
2018-12-01T22:22:40.998Z,3.47
2018-12-01T22:25:10.082Z,3.60
2018-12-01T22:27:38.311Z,3.10
2018-12-01T22:30:10.715Z,2.40
2018-12-01T22:32:38.834Z,2.40
2018-12-01T22:35:12.649Z,3.03
2018-12-01T22:37:40.763Z,1.83
2018-12-01T22:40:14.074Z,1.93
2018-12-01T22:42:42.204Z,2.63
2018-12-01T22:45:10.328Z,2.13
2018-12-01T22:47:38.583Z,2.10
2018-12-01T22:50:12.113Z,1.90
2018-12-01T22:52:40.315Z,1.87
2018-12-01T22:55:16.781Z,1.80
2018-12-01T22:57:46.467Z,2.30
2018-12-01T23:00:18.131Z,1.93
2018-12-01T23:02:46.290Z,1.53
2018-12-01T23:05:14.402Z,1.63
2018-12-01T23:07:42.582Z,1.67
2018-12-01T23:10:11.837Z,2.93
2018-12-01T23:12:40.101Z,1.90
2018-12-01T23:15:11.499Z,2.27
2018-12-01T23:17:40.289Z,2.33
2018-12-01T23:20:13.557Z,2.27
2018-12-01T23:22:41.683Z,2.23
2018-12-01T23:25:11.395Z,2.27
2018-12-01T23:27:39.582Z,2.30
2018-12-01T23:30:16.201Z,1.70
2018-12-01T23:32:45.093Z,2.10
2018-12-01T23:35:13.210Z,2.67
2018-12-01T23:37:41.346Z,2.20
2018-12-01T23:40:10.942Z,2.20
2018-12-01T23:42:39.109Z,1.67
2018-12-01T23:45:11.835Z,2.00
2018-12-01T23:47:40.123Z,2.07
2018-12-01T23:50:10.443Z,1.70
2018-12-01T23:52:38.562Z,2.20
2018-12-01T23:55:08.999Z,1.93
2018-12-01T23:57:42.306Z,2.33
